createdAt,value
2022-10-13T00:01:29.976Z,10.40
2022-10-13T00:03:59.213Z,10.40
2022-10-13T00:06:27.203Z,10.40
2022-10-13T00:08:54.660Z,10.40
2022-10-13T00:11:24.453Z,10.40
2022-10-13T00:13:54.687Z,10.40
2022-10-13T00:16:24.720Z,10.30
2022-10-13T00:18:51.731Z,10.30
2022-10-13T00:21:23.119Z,10.20
2022-10-13T00:23:51.318Z,10.20
2022-10-13T00:26:24.071Z,10.20
2022-10-13T00:28:56.349Z,10.20
2022-10-13T00:31:29.324Z,10.20
2022-10-13T00:33:57.278Z,10.20
2022-10-13T00:36:24.331Z,10.20
2022-10-13T00:38:52.293Z,10.20
2022-10-13T00:41:21.710Z,10.20
2022-10-13T00:43:54.334Z,10.20
2022-10-13T00:46:22.916Z,10.20
2022-10-13T00:49:02.056Z,10.20
2022-10-13T00:51:37.600Z,10.20
2022-10-13T00:54:07.045Z,10.20
2022-10-13T00:56:35.717Z,10.10
2022-10-13T00:59:13.372Z,10.10
2022-10-13T01:01:42.424Z,10.10
2022-10-13T01:04:09.241Z,10.10
2022-10-13T01:06:36.387Z,10.00
2022-10-13T01:09:07.998Z,10.00
2022-10-13T01:11:58.991Z,10.00
2022-10-13T01:14:36.071Z,10.00
2022-10-13T01:17:18.620Z,10.00
2022-10-13T01:20:23.280Z,9.90
2022-10-13T01:23:08.573Z,9.90
2022-10-13T01:26:14.246Z,9.90
2022-10-13T01:29:09.257Z,9.90
2022-10-13T01:32:01.621Z,9.90
2022-10-13T01:35:09.489Z,9.80
2022-10-13T01:38:16.185Z,9.90
2022-10-13T01:40:58.961Z,9.80
2022-10-13T01:43:31.277Z,9.80
2022-10-13T01:46:31.178Z,9.80
2022-10-13T01:49:01.864Z,9.90
2022-10-13T01:51:31.227Z,9.90
2022-10-13T01:54:00.269Z,9.80
2022-10-13T01:56:29.250Z,9.90
2022-10-13T01:59:01.213Z,9.90
2022-10-13T02:01:53.280Z,9.90
2022-10-13T02:04:27.917Z,9.90
2022-10-13T02:07:23.795Z,9.90
2022-10-13T02:10:09.022Z,10.00
2022-10-13T02:12:59.235Z,9.90
2022-10-13T02:15:38.584Z,9.90
2022-10-13T02:18:13.902Z,9.80
2022-10-13T02:20:44.587Z,9.80
2022-10-13T02:23:13.806Z,9.70
2022-10-13T02:25:45.719Z,9.70
2022-10-13T02:28:15.652Z,9.70
2022-10-13T02:30:43.650Z,9.70
2022-10-13T02:33:13.566Z,9.70
2022-10-13T02:35:43.613Z,9.70
2022-10-13T02:38:11.138Z,9.70
2022-10-13T02:40:38.351Z,9.70
2022-10-13T02:43:05.757Z,9.70
2022-10-13T02:45:32.475Z,9.60
2022-10-13T02:47:59.244Z,9.60
2022-10-13T02:50:29.018Z,9.60
2022-10-13T02:52:56.682Z,9.60
2022-10-13T02:55:23.385Z,9.60
2022-10-13T02:57:58.829Z,9.60
2022-10-13T03:00:25.842Z,9.50
2022-10-13T03:02:52.695Z,9.50
2022-10-13T03:05:19.489Z,9.50
2022-10-13T03:07:46.215Z,9.50
2022-10-13T03:10:15.710Z,9.50
2022-10-13T03:12:47.135Z,9.50
2022-10-13T03:15:14.046Z,9.50
2022-10-13T03:17:41.079Z,9.50
2022-10-13T03:20:08.674Z,9.50
2022-10-13T03:22:38.553Z,9.50
2022-10-13T03:25:05.799Z,9.40
2022-10-13T03:27:32.651Z,9.40
2022-10-13T03:29:59.532Z,9.40
2022-10-13T03:32:26.411Z,9.40
2022-10-13T03:34:55.402Z,9.40
2022-10-13T03:37:27.522Z,9.40
2022-10-13T03:39:54.259Z,9.40
2022-10-13T03:42:21.264Z,9.40
2022-10-13T03:44:55.957Z,9.40
2022-10-13T03:47:23.355Z,9.40
2022-10-13T03:49:55.098Z,9.40
2022-10-13T03:52:22.766Z,9.40
2022-10-13T03:54:51.822Z,9.30
2022-10-13T03:57:18.662Z,9.30
2022-10-13T03:59:45.495Z,9.30
2022-10-13T04:02:19.512Z,9.30
2022-10-13T04:04:46.824Z,9.30
2022-10-13T04:07:16.602Z,9.30
2022-10-13T04:09:43.422Z,9.30
2022-10-13T04:12:15.088Z,9.30
2022-10-13T04:14:46.814Z,9.30
2022-10-13T04:17:13.551Z,9.30
2022-10-13T04:19:42.740Z,9.40
2022-10-13T04:22:09.502Z,9.40
2022-10-13T04:24:36.291Z,9.40
2022-10-13T04:27:05.358Z,9.40
2022-10-13T04:29:32.151Z,9.40
2022-10-13T04:32:01.940Z,9.50
2022-10-13T04:34:30.893Z,9.40
2022-10-13T04:37:04.754Z,9.40
2022-10-13T04:39:31.658Z,9.40
2022-10-13T04:41:58.385Z,9.40
2022-10-13T04:44:25.248Z,9.40
2022-10-13T04:46:52.029Z,9.40
2022-10-13T04:49:18.898Z,9.40
2022-10-13T04:51:45.678Z,9.40
2022-10-13T04:54:12.457Z,9.40
2022-10-13T04:56:39.248Z,9.40
2022-10-13T04:59:06.171Z,9.40
2022-10-13T05:01:35.956Z,9.40
2022-10-13T05:04:06.098Z,9.40
2022-10-13T05:06:53.263Z,9.40
2022-10-13T05:09:27.502Z,9.30
2022-10-13T05:11:57.316Z,9.30
2022-10-13T05:14:24.178Z,9.30
2022-10-13T05:16:55.618Z,9.40
2022-10-13T05:19:24.763Z,9.40
2022-10-13T05:21:54.350Z,9.30
2022-10-13T05:24:36.601Z,9.30
2022-10-13T05:27:12.263Z,9.30
2022-10-13T05:29:39.389Z,9.30
2022-10-13T05:32:07.079Z,9.30
2022-10-13T05:34:38.671Z,9.30
2022-10-13T05:37:05.631Z,9.30
2022-10-13T05:39:33.234Z,9.30
2022-10-13T05:42:00.131Z,9.30
2022-10-13T05:44:27.016Z,9.30
2022-10-13T05:46:56.921Z,9.30
2022-10-13T05:49:23.685Z,9.30
2022-10-13T05:51:58.056Z,9.30
2022-10-13T05:54:24.933Z,9.30
2022-10-13T05:57:01.272Z,9.30
2022-10-13T05:59:37.409Z,9.30
2022-10-13T06:02:08.111Z,9.30
2022-10-13T06:04:42.612Z,9.30
2022-10-13T06:07:10.195Z,9.30
2022-10-13T06:09:41.164Z,9.30
2022-10-13T06:12:09.397Z,9.30
2022-10-13T06:14:42.901Z,9.30
2022-10-13T06:17:11.693Z,9.30
2022-10-13T06:19:45.411Z,9.30
2022-10-13T06:22:14.583Z,9.30
2022-10-13T06:24:41.839Z,9.40
2022-10-13T06:27:11.527Z,9.40
2022-10-13T06:29:38.448Z,9.40
2022-10-13T06:32:05.698Z,9.40
2022-10-13T06:34:35.658Z,9.40
2022-10-13T06:37:02.442Z,9.40
2022-10-13T06:39:29.320Z,9.40
2022-10-13T06:41:58.577Z,9.40
2022-10-13T06:44:31.656Z,9.50
2022-10-13T06:47:03.165Z,9.50
2022-10-13T06:49:32.063Z,9.60
2022-10-13T06:51:59.123Z,9.60
2022-10-13T06:54:25.874Z,9.70
2022-10-13T06:56:52.741Z,9.70
2022-10-13T06:59:19.822Z,9.70
2022-10-13T07:01:49.300Z,9.80
2022-10-13T07:04:19.063Z,9.80
2022-10-13T07:06:47.817Z,9.70
2022-10-13T07:09:16.708Z,9.80
2022-10-13T07:11:47.634Z,9.80
2022-10-13T07:14:14.398Z,9.80
2022-10-13T07:16:41.130Z,9.80
2022-10-13T07:19:08.220Z,9.90
2022-10-13T07:21:37.018Z,10.00
2022-10-13T07:24:04.146Z,10.00
2022-10-13T07:26:33.809Z,10.10
2022-10-13T07:29:03.556Z,10.10
2022-10-13T07:31:32.829Z,10.10
2022-10-13T07:34:00.358Z,10.20
2022-10-13T07:36:29.901Z,10.20
2022-10-13T07:39:00.431Z,10.20
2022-10-13T07:41:30.122Z,10.20
2022-10-13T07:43:59.707Z,10.30
2022-10-13T07:46:29.920Z,10.40
2022-10-13T07:48:56.939Z,10.50
2022-10-13T07:51:26.203Z,10.60
2022-10-13T07:53:53.279Z,10.70
2022-10-13T07:56:27.345Z,10.80
2022-10-13T07:58:56.277Z,10.90
2022-10-13T08:01:23.132Z,11.00
2022-10-13T08:03:50.592Z,11.20
2022-10-13T08:06:18.529Z,11.40
2022-10-13T08:08:48.015Z,11.50
2022-10-13T08:11:21.180Z,11.60
2022-10-13T08:13:50.033Z,11.70
2022-10-13T08:16:23.319Z,11.70
2022-10-13T08:18:50.423Z,11.70
2022-10-13T08:21:56.957Z,11.80
2022-10-13T08:24:10.135Z,12.00
2022-10-13T08:26:40.476Z,12.70
2022-10-13T08:29:21.206Z,13.00
2022-10-13T08:31:51.339Z,13.00
2022-10-13T08:34:18.450Z,12.90
2022-10-13T08:36:47.651Z,12.90
2022-10-13T08:39:14.952Z,12.90
2022-10-13T08:41:44.120Z,12.90
2022-10-13T08:47:28.073Z,13.30
2022-10-13T08:50:00.285Z,13.60
2022-10-13T08:52:44.540Z,13.80
2022-10-13T08:55:35.228Z,13.80
2022-10-13T08:58:06.818Z,13.70
2022-10-13T09:00:38.078Z,13.70
2022-10-13T09:03:29.515Z,13.70
2022-10-13T09:06:17.059Z,13.60
2022-10-13T09:08:52.766Z,13.50
2022-10-13T09:11:20.968Z,13.40
2022-10-13T09:13:47.801Z,13.30
2022-10-13T09:16:16.711Z,13.30
2022-10-13T09:18:43.500Z,13.20
2022-10-13T09:21:23.252Z,13.20
2022-10-13T09:23:53.936Z,13.20
2022-10-13T09:26:25.056Z,13.20
2022-10-13T09:28:53.064Z,13.20
2022-10-13T09:31:28.691Z,13.20
2022-10-13T09:34:03.434Z,13.20
2022-10-13T09:36:31.244Z,13.20
2022-10-13T09:39:16.382Z,13.30
2022-10-13T09:41:44.898Z,13.40
2022-10-13T09:44:17.720Z,13.40
2022-10-13T09:46:52.166Z,13.50
2022-10-13T09:49:41.640Z,13.60
2022-10-13T09:52:19.098Z,13.70
2022-10-13T09:54:52.241Z,13.70
2022-10-13T09:57:43.947Z,13.80
2022-10-13T10:00:23.252Z,13.80
2022-10-13T10:02:54.194Z,13.80
2022-10-13T10:05:45.878Z,13.90
2022-10-13T10:08:18.881Z,14.00
2022-10-13T10:10:47.310Z,14.30
2022-10-13T10:13:14.966Z,14.40
2022-10-13T10:15:57.744Z,14.50
2022-10-13T10:19:10.629Z,14.60
2022-10-13T10:21:56.986Z,14.60
2022-10-13T10:24:51.991Z,14.70
2022-10-13T10:30:06.129Z,14.80
2022-10-13T10:33:00.878Z,14.80
2022-10-13T10:35:45.141Z,14.80
2022-10-13T10:38:45.501Z,14.90
2022-10-13T10:41:23.355Z,14.90
2022-10-13T10:44:02.497Z,14.90
2022-10-13T10:46:34.595Z,14.90
2022-10-13T10:49:11.588Z,14.90
2022-10-13T10:51:41.474Z,14.90
2022-10-13T10:54:14.178Z,14.90
2022-10-13T10:56:55.826Z,15.00
2022-10-13T10:59:55.176Z,14.90
2022-10-13T11:03:00.462Z,15.00
2022-10-13T11:05:50.434Z,15.00
2022-10-13T11:08:41.329Z,15.10
2022-10-13T11:11:24.729Z,15.10
2022-10-13T11:13:57.971Z,15.20
2022-10-13T11:16:30.560Z,15.20
2022-10-13T11:19:05.596Z,15.30
2022-10-13T11:22:11.266Z,15.30
2022-10-13T11:24:47.557Z,15.40
2022-10-13T11:27:14.394Z,15.40
2022-10-13T11:29:47.104Z,15.40
2022-10-13T11:32:34.905Z,15.40
2022-10-13T11:35:03.071Z,15.40
2022-10-13T11:37:35.657Z,15.40
2022-10-13T11:40:22.235Z,15.40
2022-10-13T11:43:14.741Z,15.40
2022-10-13T11:45:59.753Z,15.40
2022-10-13T11:48:56.089Z,15.50
2022-10-13T11:52:00.745Z,15.50
2022-10-13T11:54:43.254Z,15.50
2022-10-13T11:57:22.200Z,15.60
2022-10-13T11:59:54.642Z,15.60
2022-10-13T12:02:27.646Z,15.50
2022-10-13T12:05:23.785Z,15.50
2022-10-13T12:07:52.999Z,15.60
2022-10-13T12:10:28.291Z,15.60
2022-10-13T12:12:59.044Z,15.60
2022-10-13T12:15:39.992Z,15.60
2022-10-13T12:18:33.829Z,15.70
2022-10-13T12:21:04.180Z,15.70
2022-10-13T12:23:33.071Z,15.80
2022-10-13T12:26:02.369Z,15.80
2022-10-13T12:28:51.368Z,15.80
2022-10-13T12:31:24.399Z,15.90
2022-10-13T12:33:57.032Z,15.80
2022-10-13T12:36:32.875Z,15.90
2022-10-13T12:39:03.976Z,15.90
2022-10-13T12:41:40.829Z,15.80
2022-10-13T12:44:14.724Z,15.80
2022-10-13T12:46:44.755Z,15.80
2022-10-13T12:49:17.633Z,15.80
2022-10-13T12:51:48.276Z,15.80
2022-10-13T12:54:22.326Z,15.70
2022-10-13T12:56:55.244Z,15.80
2022-10-13T12:59:24.476Z,15.70
2022-10-13T13:02:24.634Z,15.70
2022-10-13T13:04:54.148Z,15.70
2022-10-13T13:07:27.242Z,15.70
2022-10-13T13:10:11.407Z,15.70
2022-10-13T13:12:38.402Z,15.70
2022-10-13T13:15:19.748Z,15.60
2022-10-13T13:18:02.288Z,15.60
2022-10-13T13:20:34.722Z,15.60
2022-10-13T13:23:01.662Z,15.60
2022-10-13T13:25:28.467Z,15.50
2022-10-13T13:27:55.295Z,15.60
2022-10-13T13:30:23.701Z,15.60
2022-10-13T13:32:50.881Z,15.60
2022-10-13T13:35:17.962Z,15.70
2022-10-13T13:37:50.448Z,15.70
2022-10-13T13:40:22.667Z,15.70
2022-10-13T13:42:52.536Z,15.80
2022-10-13T13:45:21.841Z,15.90
2022-10-13T13:47:52.020Z,15.90
2022-10-13T13:50:28.108Z,15.80
2022-10-13T13:52:58.382Z,15.90
2022-10-13T13:55:29.688Z,15.90
2022-10-13T13:57:57.593Z,16.00
2022-10-13T14:00:25.033Z,16.00
2022-10-13T14:02:57.803Z,16.10
2022-10-13T14:05:24.765Z,16.10
2022-10-13T14:07:55.046Z,16.20
2022-10-13T14:10:21.761Z,16.20
2022-10-13T14:12:48.571Z,16.20
2022-10-13T14:15:25.843Z,16.20
2022-10-13T14:17:55.805Z,16.20
2022-10-13T14:20:22.822Z,16.20
2022-10-13T14:22:49.787Z,16.20
2022-10-13T14:25:16.988Z,16.20
2022-10-13T14:27:46.044Z,16.20
2022-10-13T14:30:13.465Z,16.20
2022-10-13T14:32:40.411Z,16.20
2022-10-13T14:35:10.125Z,16.20
2022-10-13T14:37:37.135Z,16.20
2022-10-13T14:40:06.950Z,16.20
2022-10-13T14:42:33.854Z,16.20
2022-10-13T14:45:06.368Z,16.20
2022-10-13T14:47:33.106Z,16.20
2022-10-13T14:50:01.817Z,16.20
2022-10-13T14:52:30.790Z,16.20
2022-10-13T14:54:57.559Z,16.20
2022-10-13T14:57:24.393Z,16.20
2022-10-13T14:59:51.170Z,16.10
2022-10-13T15:02:17.973Z,16.10
2022-10-13T15:04:54.392Z,16.10
2022-10-13T15:07:21.335Z,16.00
2022-10-13T15:10:04.787Z,15.90
2022-10-13T15:12:32.066Z,15.90
2022-10-13T15:15:01.266Z,15.80
2022-10-13T15:17:28.207Z,15.80
2022-10-13T15:19:55.266Z,15.70
2022-10-13T15:22:24.595Z,15.70
2022-10-13T15:24:53.916Z,15.70
2022-10-13T15:27:20.806Z,15.60
2022-10-13T15:29:47.589Z,15.60
2022-10-13T15:32:18.167Z,15.50
2022-10-13T15:34:51.763Z,15.50
2022-10-13T15:37:18.536Z,15.50
2022-10-13T15:39:53.285Z,15.50
2022-10-13T15:42:26.415Z,15.40
2022-10-13T15:45:10.417Z,15.40
2022-10-13T15:47:40.561Z,15.40
2022-10-13T15:50:08.903Z,15.30
2022-10-13T15:52:40.028Z,15.30
2022-10-13T15:55:08.665Z,15.20
2022-10-13T15:57:35.382Z,15.20
2022-10-13T16:00:02.267Z,15.20
2022-10-13T16:02:40.617Z,15.20
2022-10-13T16:05:09.248Z,15.20
2022-10-13T16:07:38.217Z,15.20
2022-10-13T16:10:05.494Z,15.10
2022-10-13T16:12:32.298Z,15.10
2022-10-13T16:15:01.559Z,15.10
2022-10-13T16:17:28.351Z,15.10
2022-10-13T16:19:57.593Z,15.10
2022-10-13T16:22:24.758Z,15.00
2022-10-13T16:24:51.668Z,15.00
2022-10-13T16:27:21.588Z,14.90
2022-10-13T16:29:50.586Z,14.90
2022-10-13T16:32:17.721Z,14.90
2022-10-13T16:34:47.251Z,14.90
2022-10-13T16:37:21.396Z,14.90
2022-10-13T16:39:51.660Z,14.80
2022-10-13T16:42:19.006Z,14.80
2022-10-13T16:44:48.022Z,14.80
2022-10-13T16:47:18.246Z,14.80
2022-10-13T16:49:47.855Z,14.80
2022-10-13T16:52:15.420Z,14.70
2022-10-13T16:54:46.334Z,14.70
2022-10-13T16:57:15.202Z,14.70
2022-10-13T16:59:42.034Z,14.70
2022-10-13T17:02:17.918Z,14.70
2022-10-13T17:04:47.234Z,14.60
2022-10-13T17:07:16.688Z,14.60
2022-10-13T17:09:45.604Z,14.60
2022-10-13T17:12:12.359Z,14.60
2022-10-13T17:14:39.266Z,14.60
2022-10-13T17:17:09.168Z,14.50
2022-10-13T17:19:35.993Z,14.50
2022-10-13T17:22:05.343Z,14.50
2022-10-13T17:24:34.463Z,14.50
2022-10-13T17:27:03.380Z,14.50
2022-10-13T17:29:30.197Z,14.50
2022-10-13T17:31:56.988Z,14.40
2022-10-13T17:34:26.157Z,14.40
2022-10-13T17:36:55.118Z,14.40
2022-10-13T17:39:24.214Z,14.30
2022-10-13T17:41:51.015Z,14.40
2022-10-13T17:44:20.827Z,14.30
2022-10-13T17:46:49.901Z,14.30
2022-10-13T17:49:18.819Z,14.30
2022-10-13T17:51:48.357Z,14.30
2022-10-13T17:54:16.586Z,14.20
2022-10-13T17:56:44.071Z,14.20
2022-10-13T17:59:11.112Z,14.20
2022-10-13T18:01:42.071Z,14.20
2022-10-13T18:04:22.358Z,14.10
2022-10-13T18:06:52.789Z,14.10
2022-10-13T18:09:21.330Z,14.10
2022-10-13T18:11:50.923Z,14.00
2022-10-13T18:14:19.684Z,14.00
2022-10-13T18:16:48.943Z,14.00
2022-10-13T18:19:21.266Z,14.00
2022-10-13T18:21:52.782Z,14.00
2022-10-13T18:24:21.721Z,14.00
2022-10-13T18:26:51.189Z,13.90
2022-10-13T18:29:18.068Z,13.90
2022-10-13T18:31:47.132Z,13.90
2022-10-13T18:34:16.975Z,13.90
2022-10-13T18:36:48.247Z,13.90
2022-10-13T18:39:22.897Z,13.90
2022-10-13T18:41:56.797Z,13.80
2022-10-13T18:44:33.933Z,13.80
2022-10-13T18:47:00.712Z,13.80
2022-10-13T18:49:35.723Z,13.80
2022-10-13T18:52:05.064Z,13.80
2022-10-13T18:54:32.964Z,13.70
2022-10-13T18:56:59.773Z,13.80
2022-10-13T18:59:26.607Z,13.70
2022-10-13T19:01:55.591Z,13.70
2022-10-13T19:04:22.977Z,13.70
2022-10-13T19:06:50.619Z,13.70
2022-10-13T19:09:21.508Z,13.70
2022-10-13T19:11:48.769Z,13.60
2022-10-13T19:14:20.804Z,13.60
2022-10-13T19:16:47.700Z,13.60
2022-10-13T19:19:17.199Z,13.60
2022-10-13T19:21:46.312Z,13.60
2022-10-13T19:24:15.330Z,13.60
2022-10-13T19:26:42.250Z,13.50
2022-10-13T19:29:13.855Z,13.50
2022-10-13T19:31:42.058Z,13.50
2022-10-13T19:34:10.746Z,13.50
2022-10-13T19:36:41.082Z,13.40
2022-10-13T19:39:15.652Z,13.40
2022-10-13T19:41:46.743Z,13.40
2022-10-13T19:44:17.117Z,13.40
2022-10-13T19:46:47.823Z,13.40
2022-10-13T19:49:16.642Z,13.40
2022-10-13T19:51:45.296Z,13.30
2022-10-13T19:54:15.212Z,13.30
2022-10-13T19:56:47.540Z,13.30
2022-10-13T19:59:15.186Z,13.30
2022-10-13T20:01:42.047Z,13.30
2022-10-13T20:04:18.507Z,13.30
2022-10-13T20:06:46.278Z,13.30
2022-10-13T20:09:13.191Z,13.20
2022-10-13T20:11:40.328Z,13.20
2022-10-13T20:14:09.636Z,13.20
2022-10-13T20:16:38.967Z,13.20
2022-10-13T20:19:05.928Z,13.10
2022-10-13T20:21:35.209Z,13.10
2022-10-13T20:24:04.316Z,13.10
2022-10-13T20:26:37.380Z,13.10
2022-10-13T20:29:04.300Z,13.10
2022-10-13T20:31:31.089Z,13.10
2022-10-13T20:33:58.631Z,13.10
2022-10-13T20:36:33.657Z,13.10
2022-10-13T20:39:08.127Z,13.00
2022-10-13T20:41:39.470Z,13.00
2022-10-13T20:44:09.388Z,13.00
2022-10-13T20:46:36.141Z,13.00
2022-10-13T20:49:13.432Z,13.00
2022-10-13T20:51:45.949Z,13.00
2022-10-13T20:54:14.210Z,12.90
2022-10-13T20:56:44.230Z,12.90
2022-10-13T20:59:14.414Z,12.90
2022-10-13T21:01:43.399Z,12.90
2022-10-13T21:04:12.695Z,12.90
2022-10-13T21:06:44.372Z,12.90
2022-10-13T21:09:13.361Z,12.90
2022-10-13T21:11:41.794Z,12.80
2022-10-13T21:14:09.681Z,12.80
2022-10-13T21:16:37.507Z,12.80
2022-10-13T21:19:08.636Z,12.80
2022-10-13T21:21:36.034Z,12.80
2022-10-13T21:24:06.630Z,12.80
2022-10-13T21:26:34.298Z,12.70
2022-10-13T21:29:02.372Z,12.70
2022-10-13T21:31:29.944Z,12.70
2022-10-13T21:33:56.954Z,12.70
2022-10-13T21:36:27.003Z,12.60
2022-10-13T21:39:01.364Z,12.60
2022-10-13T21:41:32.634Z,12.60
2022-10-13T21:43:59.724Z,12.60
2022-10-13T21:46:32.119Z,12.60
2022-10-13T21:49:03.473Z,12.60
2022-10-13T21:51:35.401Z,12.50
2022-10-13T21:54:11.261Z,12.60
2022-10-13T21:56:39.635Z,12.50
2022-10-13T21:59:07.357Z,12.50
2022-10-13T22:01:34.458Z,12.50
2022-10-13T22:04:02.367Z,12.40
2022-10-13T22:06:32.141Z,12.40
2022-10-13T22:09:01.109Z,12.40
2022-10-13T22:11:32.868Z,12.40
2022-10-13T22:14:06.817Z,12.40
2022-10-13T22:16:39.945Z,12.40
2022-10-13T22:19:11.981Z,12.30
2022-10-13T22:21:45.132Z,12.30
2022-10-13T22:24:15.291Z,12.30
2022-10-13T22:26:43.244Z,12.30
2022-10-13T22:29:14.730Z,12.30
2022-10-13T22:31:43.342Z,12.20
2022-10-13T22:34:14.263Z,12.20
2022-10-13T22:36:44.838Z,12.20
2022-10-13T22:39:15.436Z,12.20
2022-10-13T22:41:42.463Z,12.20
2022-10-13T22:44:09.400Z,12.10
2022-10-13T22:46:37.656Z,12.10
2022-10-13T22:49:05.317Z,12.10
2022-10-13T22:51:34.334Z,12.00
2022-10-13T22:54:04.106Z,12.00
2022-10-13T22:56:34.380Z,12.00
2022-10-13T22:59:08.173Z,12.00
2022-10-13T23:01:35.518Z,12.00
2022-10-13T23:04:02.554Z,12.00
2022-10-13T23:06:31.509Z,12.00
2022-10-13T23:09:06.884Z,12.00
2022-10-13T23:11:38.808Z,11.90
2022-10-13T23:14:07.917Z,11.90
2022-10-13T23:16:36.899Z,11.90
2022-10-13T23:19:03.855Z,11.90
2022-10-13T23:21:30.958Z,11.80
2022-10-13T23:23:59.966Z,11.80
2022-10-13T23:26:27.967Z,11.80
2022-10-13T23:28:59.005Z,11.80
2022-10-13T23:31:28.519Z,11.70
2022-10-13T23:33:55.752Z,11.70
2022-10-13T23:36:27.410Z,11.70
2022-10-13T23:39:06.220Z,11.70
2022-10-13T23:41:33.821Z,11.70
2022-10-13T23:44:00.566Z,11.70
2022-10-13T23:46:27.720Z,11.70
2022-10-13T23:48:56.900Z,11.60
2022-10-13T23:51:25.255Z,11.60
2022-10-13T23:53:52.410Z,11.60
2022-10-13T23:56:19.893Z,11.60
2022-10-13T23:58:47.260Z,11.60
